createdAt,value
2017-07-02T00:00:56.700Z,88.50
2017-07-02T00:03:25.035Z,88.50
2017-07-02T00:05:53.347Z,88.10
2017-07-02T00:08:21.703Z,87.90
2017-07-02T00:10:50.025Z,88.10
2017-07-02T00:13:18.344Z,88.10
2017-07-02T00:15:46.687Z,88.20
2017-07-02T00:18:15.079Z,88.20
2017-07-02T00:20:43.416Z,88.10
2017-07-02T00:23:11.739Z,88.00
2017-07-02T00:25:40.074Z,88.20
2017-07-02T00:28:08.388Z,88.30
2017-07-02T00:30:36.723Z,88.30
2017-07-02T00:33:05.102Z,88.20
2017-07-02T00:35:33.415Z,88.30
2017-07-02T00:38:01.003Z,88.30
2017-07-02T00:40:29.320Z,88.50
2017-07-02T00:42:57.661Z,88.40
2017-07-02T00:45:25.976Z,88.30
2017-07-02T00:47:54.311Z,88.40
2017-07-02T00:50:22.631Z,88.50
2017-07-02T00:52:50.944Z,88.60
2017-07-02T00:55:19.283Z,88.60
2017-07-02T00:57:47.600Z,88.90
2017-07-02T01:00:15.939Z,88.90
2017-07-02T01:02:44.252Z,88.90
2017-07-02T01:05:12.606Z,89.00
2017-07-02T01:07:41.012Z,89.00
2017-07-02T01:10:09.351Z,88.90
2017-07-02T01:12:37.663Z,89.00
2017-07-02T01:15:05.971Z,89.10
2017-07-02T01:17:34.349Z,89.20
2017-07-02T01:20:01.897Z,89.20
2017-07-02T01:22:30.283Z,89.30
2017-07-02T01:24:58.594Z,89.30
2017-07-02T01:27:26.927Z,89.40
2017-07-02T01:29:55.253Z,89.40
2017-07-02T01:32:23.601Z,89.30
2017-07-02T01:34:51.919Z,89.30
2017-07-02T01:37:20.237Z,89.40
2017-07-02T01:39:48.579Z,89.40
2017-07-02T01:42:16.904Z,89.50
2017-07-02T01:44:45.240Z,89.30
2017-07-02T01:47:12.816Z,89.30
2017-07-02T01:49:41.152Z,89.30
2017-07-02T01:52:09.477Z,89.20
2017-07-02T01:54:37.821Z,89.20
2017-07-02T01:57:06.140Z,89.30
2017-07-02T01:59:34.458Z,89.50
2017-07-02T02:02:13.975Z,89.40
2017-07-02T02:04:42.328Z,89.50
2017-07-02T02:07:10.656Z,89.50
2017-07-02T02:09:38.991Z,90.00
2017-07-02T02:12:07.325Z,89.50
2017-07-02T02:14:35.647Z,89.50
2017-07-02T02:17:03.991Z,89.50
2017-07-02T02:19:32.315Z,89.60
2017-07-02T02:22:00.688Z,89.60
2017-07-02T02:24:29.008Z,89.60
2017-07-02T02:26:57.348Z,89.60
2017-07-02T02:29:25.679Z,89.60
2017-07-02T02:31:54.024Z,89.80
2017-07-02T02:34:22.344Z,90.00
2017-07-02T02:36:50.673Z,90.00
2017-07-02T02:39:19.013Z,90.00
2017-07-02T02:41:47.335Z,90.00
2017-07-02T02:44:15.672Z,90.00
2017-07-02T02:46:43.992Z,90.00
2017-07-02T02:49:12.328Z,89.90
2017-07-02T02:51:40.701Z,90.00
2017-07-02T02:54:09.049Z,90.00
2017-07-02T02:56:37.379Z,89.80
2017-07-02T02:59:05.732Z,89.70
2017-07-02T03:01:34.043Z,89.80
2017-07-02T03:04:02.376Z,89.90
2017-07-02T03:06:30.718Z,90.00
2017-07-02T03:08:59.039Z,90.00
2017-07-02T03:11:27.384Z,89.90
2017-07-02T03:13:55.699Z,89.90
2017-07-02T03:16:24.050Z,89.80
2017-07-02T03:18:52.376Z,89.50
2017-07-02T03:21:20.723Z,89.50
2017-07-02T03:23:49.047Z,89.50
2017-07-02T03:26:17.399Z,89.40
2017-07-02T03:28:45.722Z,89.50
2017-07-02T03:31:14.043Z,89.50
2017-07-02T03:33:42.387Z,89.50
2017-07-02T03:36:10.718Z,89.30
2017-07-02T03:38:39.076Z,89.00
2017-07-02T03:41:07.396Z,89.00
2017-07-02T03:43:35.737Z,88.80
2017-07-02T03:46:04.060Z,88.70
2017-07-02T03:48:32.404Z,88.50
2017-07-02T03:51:00.723Z,88.30
2017-07-02T03:53:29.067Z,88.30
2017-07-02T03:55:57.391Z,88.20
2017-07-02T03:58:25.740Z,88.10
2017-07-02T04:00:54.087Z,88.00
2017-07-02T04:03:22.437Z,88.70
2017-07-02T04:05:50.780Z,87.70
2017-07-02T04:08:19.100Z,87.70
2017-07-02T04:10:47.439Z,87.80
2017-07-02T04:13:15.769Z,87.90
2017-07-02T04:15:44.116Z,87.60
2017-07-02T04:18:12.441Z,87.70
2017-07-02T04:20:40.803Z,87.30
2017-07-02T04:23:09.123Z,86.20
2017-07-02T04:25:37.450Z,85.90
2017-07-02T04:28:05.791Z,86.00
2017-07-02T04:30:34.111Z,86.10
2017-07-02T04:33:02.452Z,86.10
2017-07-02T04:35:30.775Z,86.20
2017-07-02T04:37:59.116Z,85.50
2017-07-02T04:40:27.435Z,84.70
2017-07-02T04:42:55.769Z,84.60
2017-07-02T04:45:24.091Z,83.90
2017-07-02T04:47:52.437Z,80.30
2017-07-02T04:50:20.753Z,78.20
2017-07-02T04:52:49.068Z,75.70
2017-07-02T04:55:17.418Z,73.10
2017-07-02T04:57:45.850Z,71.10
2017-07-02T05:00:14.194Z,69.70
2017-07-02T05:02:42.515Z,70.20
2017-07-02T05:05:10.854Z,71.60
2017-07-02T05:07:39.173Z,71.50
2017-07-02T05:10:07.514Z,70.80
2017-07-02T05:12:35.824Z,71.70
2017-07-02T05:15:04.195Z,72.50
2017-07-02T05:17:32.510Z,73.30
2017-07-02T05:20:00.823Z,73.80
2017-07-02T05:22:29.156Z,74.50
2017-07-02T05:24:57.482Z,75.30
2017-07-02T05:27:25.820Z,75.90
2017-07-02T05:29:54.140Z,76.60
2017-07-02T05:32:22.477Z,77.00
2017-07-02T05:34:50.795Z,77.60
2017-07-02T05:37:19.134Z,78.20
2017-07-02T05:39:47.451Z,78.70
2017-07-02T05:42:15.800Z,78.70
2017-07-02T05:44:44.120Z,79.10
2017-07-02T05:47:12.443Z,78.80
2017-07-02T05:49:40.779Z,79.60
2017-07-02T05:52:09.103Z,79.30
2017-07-02T05:54:37.447Z,79.60
2017-07-02T05:57:05.767Z,79.50
2017-07-02T05:59:33.336Z,79.50
2017-07-02T06:02:01.661Z,79.30
2017-07-02T06:04:29.992Z,79.10
2017-07-02T06:06:58.312Z,79.20
2017-07-02T06:09:26.661Z,78.80
2017-07-02T06:11:54.980Z,78.70
2017-07-02T06:14:23.304Z,78.70
2017-07-02T06:16:51.643Z,79.20
2017-07-02T06:19:19.963Z,79.40
2017-07-02T06:21:48.299Z,79.00
2017-07-02T06:24:16.613Z,78.80
2017-07-02T06:26:44.952Z,78.90
2017-07-02T06:29:13.271Z,79.00
2017-07-02T06:31:41.611Z,79.00
2017-07-02T06:34:09.926Z,78.80
2017-07-02T06:36:38.274Z,79.00
2017-07-02T06:39:06.588Z,78.60
2017-07-02T06:41:34.904Z,78.30
2017-07-02T06:44:03.235Z,77.60
2017-07-02T06:46:31.555Z,77.60
2017-07-02T06:48:59.890Z,77.30
2017-07-02T06:51:28.204Z,77.10
2017-07-02T06:53:56.540Z,77.10
2017-07-02T06:56:24.846Z,76.60
2017-07-02T06:58:53.188Z,76.10
2017-07-02T07:01:21.500Z,76.00
2017-07-02T07:03:49.849Z,76.10
2017-07-02T07:06:18.267Z,75.90
2017-07-02T07:08:46.581Z,75.90
2017-07-02T07:11:14.917Z,76.10
2017-07-02T07:13:43.248Z,75.40
2017-07-02T07:16:11.579Z,74.60
2017-07-02T07:18:39.889Z,73.20
2017-07-02T07:21:08.229Z,72.80
2017-07-02T07:23:36.543Z,72.60
2017-07-02T07:26:04.883Z,72.10
2017-07-02T07:28:33.198Z,71.70
2017-07-02T07:31:01.536Z,71.80
2017-07-02T07:33:29.893Z,71.70
2017-07-02T07:35:58.199Z,71.60
2017-07-02T07:38:26.555Z,71.60
2017-07-02T07:40:54.874Z,71.80
2017-07-02T07:43:23.221Z,72.20
2017-07-02T07:45:51.535Z,71.90
2017-07-02T07:48:19.880Z,70.80
2017-07-02T07:50:48.193Z,70.70
2017-07-02T07:53:16.547Z,70.00
2017-07-02T07:55:44.867Z,69.60
2017-07-02T07:58:13.215Z,69.70
2017-07-02T08:00:41.531Z,70.10
2017-07-02T08:03:09.909Z,70.80
2017-07-02T08:05:38.240Z,71.50
2017-07-02T08:08:06.559Z,71.70
2017-07-02T08:10:34.895Z,71.50
2017-07-02T08:13:03.215Z,70.30
2017-07-02T08:15:31.547Z,70.00
2017-07-02T08:17:59.862Z,70.40
2017-07-02T08:20:28.199Z,70.70
2017-07-02T08:22:56.536Z,70.80
2017-07-02T08:25:24.873Z,70.70
2017-07-02T08:27:53.197Z,70.50
2017-07-02T08:30:21.499Z,69.40
2017-07-02T08:32:49.834Z,69.70
2017-07-02T08:35:18.156Z,70.60
2017-07-02T08:37:46.485Z,71.10
2017-07-02T08:40:14.784Z,71.60
2017-07-02T08:42:43.119Z,71.60
2017-07-02T08:45:11.442Z,70.60
2017-07-02T08:47:39.777Z,70.00
2017-07-02T08:50:08.098Z,69.20
2017-07-02T08:52:36.408Z,69.40
2017-07-02T08:55:04.748Z,70.20
2017-07-02T08:57:33.057Z,71.00
2017-07-02T09:00:01.392Z,71.00
2017-07-02T09:02:29.698Z,71.90
2017-07-02T09:04:58.027Z,72.90
2017-07-02T09:07:26.337Z,73.80
2017-07-02T09:09:54.676Z,73.50
2017-07-02T09:12:22.988Z,73.50
2017-07-02T09:14:51.332Z,73.60
2017-07-02T09:17:19.663Z,73.30
2017-07-02T09:19:47.973Z,72.90
2017-07-02T09:22:16.309Z,72.70
2017-07-02T09:24:44.620Z,73.10
2017-07-02T09:27:12.959Z,74.20
2017-07-02T09:29:41.273Z,73.90
2017-07-02T09:32:09.611Z,74.60
2017-07-02T09:34:37.928Z,72.90
2017-07-02T09:37:06.283Z,73.20
2017-07-02T09:39:34.593Z,73.30
2017-07-02T09:42:02.900Z,72.20
2017-07-02T09:44:31.243Z,71.20
2017-07-02T09:46:59.560Z,71.50
2017-07-02T09:49:27.888Z,70.70
2017-07-02T09:51:56.209Z,70.30
2017-07-02T09:54:24.548Z,70.70
2017-07-02T09:56:52.859Z,71.10
2017-07-02T09:59:21.190Z,70.80
2017-07-02T10:01:49.516Z,70.90
2017-07-02T10:04:17.831Z,71.00
2017-07-02T10:06:45.396Z,71.00
2017-07-02T10:09:13.713Z,72.50
2017-07-02T10:11:42.055Z,73.50
2017-07-02T10:14:10.384Z,73.80
2017-07-02T10:16:38.723Z,74.40
2017-07-02T10:19:07.035Z,75.30
2017-07-02T10:21:35.360Z,75.90
2017-07-02T10:24:03.676Z,74.30
2017-07-02T10:26:32.028Z,74.50
2017-07-02T10:29:00.345Z,74.90
2017-07-02T10:31:28.663Z,74.50
2017-07-02T10:33:56.998Z,74.10
2017-07-02T10:36:25.311Z,73.40
2017-07-02T10:38:53.668Z,72.50
2017-07-02T10:41:22.157Z,72.40
2017-07-02T10:43:50.505Z,70.90
2017-07-02T10:46:18.819Z,70.70
2017-07-02T10:48:47.163Z,71.20
2017-07-02T10:51:15.583Z,71.70
2017-07-02T10:53:43.901Z,71.90
2017-07-02T10:56:12.857Z,72.40
2017-07-02T10:58:41.855Z,72.50
2017-07-02T11:01:10.212Z,72.50
2017-07-02T11:03:38.521Z,71.20
2017-07-02T11:06:06.892Z,71.00
2017-07-02T11:08:35.207Z,70.60
2017-07-02T11:11:03.567Z,69.70
2017-07-02T11:13:31.876Z,69.30
2017-07-02T11:16:00.189Z,68.60
2017-07-02T11:18:27.757Z,68.60
2017-07-02T11:20:56.090Z,69.00
2017-07-02T11:23:25.283Z,68.80
2017-07-02T11:25:53.595Z,68.70
2017-07-02T11:28:21.956Z,68.50
2017-07-02T11:30:50.272Z,68.40
2017-07-02T11:33:18.608Z,67.40
2017-07-02T11:35:46.993Z,67.20
2017-07-02T11:38:15.301Z,67.90
2017-07-02T11:40:42.871Z,67.90
2017-07-02T11:43:11.199Z,68.80
2017-07-02T11:45:39.528Z,69.40
2017-07-02T11:48:07.085Z,69.40
2017-07-02T11:50:35.432Z,68.50
2017-07-02T11:53:03.764Z,67.70
2017-07-02T11:55:32.120Z,67.60
2017-07-02T11:58:00.429Z,66.20
2017-07-02T12:00:28.739Z,66.50
2017-07-02T12:02:57.070Z,65.60
2017-07-02T12:05:25.400Z,66.20
2017-07-02T12:07:53.737Z,66.60
2017-07-02T12:10:22.047Z,66.50
2017-07-02T12:12:50.379Z,66.40
2017-07-02T12:15:18.690Z,65.70
2017-07-02T12:17:47.031Z,65.10
2017-07-02T12:20:15.346Z,64.00
2017-07-02T12:22:43.661Z,65.00
2017-07-02T12:25:12.020Z,65.40
2017-07-02T12:27:40.323Z,65.70
2017-07-02T12:30:08.666Z,65.50
2017-07-02T12:32:36.975Z,63.60
2017-07-02T12:35:05.329Z,61.70
2017-07-02T12:37:33.639Z,60.70
2017-07-02T12:40:01.979Z,59.20
2017-07-02T12:42:30.291Z,57.50
2017-07-02T12:44:58.610Z,58.70
2017-07-02T12:47:26.975Z,59.70
2017-07-02T12:49:55.282Z,61.10
2017-07-02T12:52:23.616Z,61.60
2017-07-02T12:54:51.925Z,62.70
2017-07-02T12:57:20.260Z,63.40
2017-07-02T12:59:48.567Z,63.60
2017-07-02T13:02:16.893Z,63.70
2017-07-02T13:04:45.227Z,63.60
2017-07-02T13:07:13.563Z,64.00
2017-07-02T13:09:41.896Z,64.70
2017-07-02T13:12:10.200Z,64.40
2017-07-02T13:14:38.582Z,63.40
2017-07-02T13:17:06.899Z,63.20
2017-07-02T13:19:35.229Z,62.80
2017-07-02T13:22:03.532Z,61.40
2017-07-02T13:24:31.869Z,60.50
2017-07-02T13:27:00.181Z,58.60
2017-07-02T13:29:28.539Z,58.50
2017-07-02T13:31:56.887Z,59.00
2017-07-02T13:34:25.230Z,59.30
2017-07-02T13:36:53.541Z,60.80
2017-07-02T13:39:21.854Z,62.20
2017-07-02T13:41:50.193Z,62.70
2017-07-02T13:44:18.496Z,63.70
2017-07-02T13:46:46.829Z,64.50
2017-07-02T13:49:15.136Z,64.70
2017-07-02T13:51:43.467Z,65.10
2017-07-02T13:54:11.785Z,64.70
2017-07-02T13:56:40.123Z,63.50
2017-07-02T13:59:08.436Z,63.30
2017-07-02T14:01:36.783Z,62.20
2017-07-02T14:04:05.101Z,61.10
2017-07-02T14:06:33.413Z,59.20
2017-07-02T14:09:00.990Z,59.20
2017-07-02T14:11:29.313Z,58.70
2017-07-02T14:13:57.647Z,58.30
2017-07-02T14:16:25.976Z,58.30
2017-07-02T14:18:54.301Z,59.60
2017-07-02T14:21:22.620Z,60.40
2017-07-02T14:23:50.953Z,60.00
2017-07-02T14:26:19.268Z,60.40
2017-07-02T14:28:47.611Z,59.80
2017-07-02T14:31:15.921Z,58.50
2017-07-02T14:33:44.237Z,58.10
2017-07-02T14:36:12.567Z,58.10
2017-07-02T14:38:40.900Z,57.80
2017-07-02T14:41:08.471Z,57.80
2017-07-02T14:43:36.783Z,58.90
2017-07-02T14:46:05.120Z,58.70
2017-07-02T14:48:33.426Z,58.70
2017-07-02T14:51:01.758Z,59.20
2017-07-02T14:53:30.073Z,59.60
2017-07-02T14:55:58.420Z,60.60
2017-07-02T14:58:25.963Z,59.90
2017-07-02T15:00:54.287Z,60.50
2017-07-02T15:03:22.616Z,60.50
2017-07-02T15:05:50.931Z,60.70
2017-07-02T15:08:19.274Z,62.00
2017-07-02T15:10:47.586Z,62.70
2017-07-02T15:13:15.919Z,64.90
2017-07-02T15:15:44.231Z,67.30
2017-07-02T15:18:12.572Z,68.80
2017-07-02T15:20:40.891Z,70.40
2017-07-02T15:23:09.237Z,70.80
2017-07-02T15:25:37.579Z,71.70
2017-07-02T15:28:05.883Z,72.70
2017-07-02T15:30:34.227Z,73.30
2017-07-02T15:33:02.549Z,73.80
2017-07-02T15:35:30.904Z,75.00
2017-07-02T15:37:59.231Z,75.50
2017-07-02T15:40:27.563Z,75.60
2017-07-02T15:42:55.881Z,75.80
2017-07-02T15:45:24.217Z,76.10
2017-07-02T15:47:52.543Z,77.00
2017-07-02T15:50:20.886Z,77.50
2017-07-02T15:52:49.195Z,77.40
2017-07-02T15:55:17.507Z,77.30
2017-07-02T15:57:45.841Z,76.80
2017-07-02T16:00:14.150Z,76.20
2017-07-02T16:02:42.482Z,75.80
2017-07-02T16:05:10.807Z,75.30
2017-07-02T16:07:39.143Z,74.50
2017-07-02T16:10:07.465Z,74.50
2017-07-02T16:12:35.792Z,73.40
2017-07-02T16:15:04.115Z,72.90
2017-07-02T16:17:32.456Z,71.60
2017-07-02T16:20:00.767Z,71.70
2017-07-02T16:22:29.076Z,72.00
2017-07-02T16:24:57.413Z,71.60
2017-07-02T16:27:25.730Z,71.60
2017-07-02T16:29:54.075Z,71.90
2017-07-02T16:32:22.389Z,71.90
2017-07-02T16:34:50.726Z,71.00
2017-07-02T16:37:19.048Z,70.70
2017-07-02T16:39:47.384Z,71.50
2017-07-02T16:42:15.700Z,71.20
2017-07-02T16:44:44.052Z,70.50
2017-07-02T16:47:12.364Z,70.80
2017-07-02T16:49:40.700Z,71.40
2017-07-02T16:52:08.267Z,71.70
2017-07-02T16:54:36.583Z,68.30
2017-07-02T16:57:04.915Z,67.00
2017-07-02T16:59:33.223Z,66.90
2017-07-02T17:02:01.611Z,64.70
2017-07-02T17:04:29.912Z,63.70
2017-07-02T17:06:58.240Z,62.10
2017-07-02T17:09:26.558Z,62.10
2017-07-02T17:11:54.905Z,63.40
2017-07-02T17:14:23.216Z,64.90
2017-07-02T17:16:51.541Z,65.50
2017-07-02T17:19:19.877Z,66.70
2017-07-02T17:21:48.191Z,67.10
2017-07-02T17:24:16.521Z,67.50
2017-07-02T17:26:44.848Z,64.50
2017-07-02T17:29:12.420Z,64.40
2017-07-02T17:31:40.742Z,55.70
2017-07-02T17:34:09.073Z,55.00
2017-07-02T17:36:37.401Z,55.70
2017-07-02T17:39:05.753Z,58.70
2017-07-02T17:41:34.068Z,59.60
2017-07-02T17:44:02.423Z,60.00
2017-07-02T17:46:30.769Z,58.60
2017-07-02T17:48:59.084Z,56.50
2017-07-02T17:51:27.417Z,54.40
2017-07-02T17:53:55.739Z,55.00
2017-07-02T17:56:23.304Z,55.00
2017-07-02T17:58:51.612Z,59.30
2017-07-02T18:01:19.942Z,60.20
2017-07-02T18:03:48.244Z,61.80
2017-07-02T18:06:16.586Z,63.60
2017-07-02T18:08:44.152Z,63.60
2017-07-02T18:11:12.457Z,66.80
2017-07-02T18:13:40.840Z,68.20
2017-07-02T18:16:09.185Z,69.10
2017-07-02T18:18:36.774Z,69.10
2017-07-02T18:21:05.164Z,70.30
2017-07-02T18:23:33.555Z,70.40
2017-07-02T18:26:01.865Z,70.50
2017-07-02T18:28:30.204Z,71.00
2017-07-02T18:30:58.523Z,71.60
2017-07-02T18:33:26.863Z,71.90
2017-07-02T18:35:55.176Z,72.20
2017-07-02T18:38:23.485Z,72.30
2017-07-02T18:40:51.822Z,72.70
2017-07-02T18:43:20.129Z,73.00
2017-07-02T18:45:48.482Z,73.00
2017-07-02T18:48:16.792Z,73.40
2017-07-02T18:50:45.128Z,74.20
2017-07-02T18:53:13.438Z,75.20
2017-07-02T18:55:41.773Z,75.70
2017-07-02T18:58:10.085Z,76.50
2017-07-02T19:00:38.420Z,77.20
2017-07-02T19:03:06.747Z,77.40
2017-07-02T19:05:35.082Z,78.00
2017-07-02T19:08:03.396Z,78.60
2017-07-02T19:10:31.718Z,78.80
2017-07-02T19:13:00.074Z,78.30
2017-07-02T19:15:28.388Z,77.50
2017-07-02T19:17:56.728Z,76.80
2017-07-02T19:20:25.046Z,76.90
2017-07-02T19:22:53.388Z,77.30
2017-07-02T19:25:21.738Z,77.50
2017-07-02T19:27:50.083Z,77.80
2017-07-02T19:30:18.396Z,78.30
2017-07-02T19:32:46.839Z,78.30
2017-07-02T19:35:15.165Z,79.40
2017-07-02T19:37:42.746Z,78.60
2017-07-02T19:40:11.079Z,78.80
2017-07-02T19:42:39.397Z,79.40
2017-07-02T19:45:07.733Z,79.60
2017-07-02T19:47:36.053Z,80.00
2017-07-02T19:50:04.426Z,80.70
2017-07-02T19:52:32.781Z,81.40
2017-07-02T19:55:01.116Z,81.80
2017-07-02T19:57:29.442Z,82.40
2017-07-02T19:59:57.789Z,83.10
2017-07-02T20:02:26.109Z,83.50
2017-07-02T20:04:54.425Z,83.70
2017-07-02T20:07:22.759Z,83.90
2017-07-02T20:09:51.081Z,84.10
2017-07-02T20:12:19.413Z,84.50
2017-07-02T20:14:47.755Z,84.60
2017-07-02T20:17:16.117Z,85.00
2017-07-02T20:19:44.435Z,85.40
2017-07-02T20:22:12.777Z,85.40
2017-07-02T20:24:41.100Z,85.50
2017-07-02T20:27:09.450Z,85.50
2017-07-02T20:29:37.765Z,85.60
2017-07-02T20:32:06.081Z,85.80
2017-07-02T20:34:34.415Z,86.00
2017-07-02T20:37:02.729Z,86.10
2017-07-02T20:39:31.071Z,86.00
2017-07-02T20:41:59.388Z,86.00
2017-07-02T20:44:27.731Z,86.60
2017-07-02T20:46:56.055Z,86.10
2017-07-02T20:49:24.387Z,86.50
2017-07-02T20:51:52.708Z,86.40
2017-07-02T20:54:21.049Z,86.30
2017-07-02T20:56:49.363Z,86.40
2017-07-02T20:59:17.677Z,86.50
2017-07-02T21:01:46.017Z,86.60
2017-07-02T21:04:14.344Z,86.40
2017-07-02T21:06:42.760Z,86.50
2017-07-02T21:09:11.175Z,86.60
2017-07-02T21:11:39.520Z,86.60
2017-07-02T21:14:07.836Z,87.50
2017-07-02T21:16:36.194Z,86.80
2017-07-02T21:19:04.516Z,86.90
2017-07-02T21:21:32.875Z,86.60
2017-07-02T21:24:01.192Z,86.60
2017-07-02T21:26:28.739Z,86.60
2017-07-02T21:28:56.328Z,86.70
2017-07-02T21:31:24.659Z,86.60
2017-07-02T21:33:52.996Z,86.50
2017-07-02T21:36:21.323Z,86.40
2017-07-02T21:38:49.071Z,86.40
2017-07-02T21:41:17.398Z,86.40
2017-07-02T21:43:45.743Z,86.60
2017-07-02T21:46:14.065Z,86.80
2017-07-02T21:48:42.436Z,87.70
2017-07-02T21:51:10.756Z,86.70
2017-07-02T21:53:39.077Z,86.80
2017-07-02T21:56:07.444Z,86.90
2017-07-02T21:58:35.780Z,86.90
2017-07-02T22:01:04.155Z,87.00
2017-07-02T22:03:32.504Z,87.20
2017-07-02T22:06:00.844Z,87.40
2017-07-02T22:08:28.392Z,87.40
2017-07-02T22:10:56.744Z,87.30
2017-07-02T22:13:25.063Z,87.40
2017-07-02T22:15:53.430Z,87.40
2017-07-02T22:18:21.790Z,87.40
2017-07-02T22:20:50.107Z,87.30
2017-07-02T22:23:18.460Z,87.20
2017-07-02T22:25:46.775Z,87.30
2017-07-02T22:28:15.123Z,87.20
2017-07-02T22:30:43.445Z,87.20
2017-07-02T22:33:11.787Z,87.20
2017-07-02T22:35:40.107Z,87.20
2017-07-02T22:38:08.465Z,87.20
2017-07-02T22:40:36.791Z,87.20
2017-07-02T22:43:05.112Z,87.00
2017-07-02T22:45:33.453Z,86.70
2017-07-02T22:48:01.769Z,86.90
2017-07-02T22:50:30.117Z,87.00
2017-07-02T22:52:58.444Z,87.10
2017-07-02T22:55:26.784Z,87.20
2017-07-02T22:57:55.109Z,87.20
2017-07-02T23:00:23.475Z,87.10
2017-07-02T23:02:51.801Z,86.90
2017-07-02T23:05:20.120Z,86.80
2017-07-02T23:07:48.466Z,86.70
2017-07-02T23:10:16.791Z,86.80
2017-07-02T23:12:45.135Z,86.60
2017-07-02T23:15:13.452Z,86.70
2017-07-02T23:17:41.791Z,86.80
2017-07-02T23:20:10.111Z,87.20
2017-07-02T23:22:38.468Z,87.30
2017-07-02T23:25:06.787Z,87.30
2017-07-02T23:27:35.103Z,87.10
2017-07-02T23:30:03.452Z,86.70
2017-07-02T23:32:31.770Z,86.70
2017-07-02T23:35:00.119Z,86.80
2017-07-02T23:37:28.435Z,86.90
2017-07-02T23:39:56.776Z,87.20
2017-07-02T23:42:25.107Z,87.10
2017-07-02T23:44:53.457Z,87.20
2017-07-02T23:47:21.774Z,86.50
2017-07-02T23:49:50.123Z,87.00
2017-07-02T23:52:18.553Z,86.90
2017-07-02T23:54:46.915Z,86.70
2017-07-02T23:57:15.264Z,86.60
2017-07-02T23:59:43.588Z,86.60
